Terminal Aerodrome Forecast
Issued by NWS

Home | Current Version | Previous Version | Text Only | Print | Product List | Glossary On
Versions: 1 2 3 4 5 6 7 8 9 10 11 12 13 14
000
FTUS45 KREV 301100
TAFMMH
TAF
KMMH 301129Z 3012/0112 VRB04KT P6SM FEW180
     FM302000 32010KT P6SM FEW180
     FM010300 30006KT P6SM SKC
      AMD NOT SKED 3012/3014=

USA.gov is the U.S. government's official web portal to all federal, state and local government web resources and services.